Main page
METAR-TAF:

METAR-TAF

Airports :

Kuwait International Airport

Kuwait City, Kuwait

latitude: 29-13N, longitude: 047-59E, elevation: 55 m

Current weather observation

The report was made 9 minutes ago, at 22:00 UTC
Wind 3 kt from the West
Temperature 8°C
Humidity 81%
Pressure 1019 hPa
Visibility: 8000 m

METAR: OKBK 222200Z 28003KT 8000 NSC 08/05 Q1019 NOSIG

Time: 01:09 (22:09 UTC)

Forecast

The report was made 5 hours and 24 minutes ago, at 16:45 UTC
Forecast valid from 22 at 18 UTC to 23 at 24 UTC
Wind 3 kt from variable directions
Visibility: 7000 m

TAF: OKBK 221645Z 2218/2324 VRB03KT 7000 NSC

Weather observations and forecasts of more than 4000 airports (METAR and TAF reports).

The available stations are represented by yellow and red dots on the map.

Hover mouse over dot to see the name of the station.

Then click to see weather observations and forecasts.

To change the map : click on the green buttons with a black cross to zoom in, on the green button with a dash to zoom out, or on the green arrows for adjacent maps.


METAR-TAF: